Airfield :
LOGIN :

Register | Disclaimer

   EN    FR    IT 

 










Legend :    VFR   Marginal VFR   IFR   Intensive IFR   Very Intensive IFR
Visi :
Ceiling :
>= 8 km
>= 3000ft
5 to 8 km
1000 to 3000 ft
1500m to 5 km
500 to 1000 ft
800 to 1500m
200 to 500 ft
< 800m
< 200 ft
Symbols :   Thunderstorms  Fog  Heavy snow  Heavy precipitations  Wind > 20 kt
SIGMETs :     Misc.  Thunderstorms  Icing  Turbulence  Mountain Waves  Volcanic Ashes







- Airport Elevation : 33 ft
- IATA code : MHZ


EGUN - RAF Mildenhall

CURRENT METAR :
  • 261132Z AUTO 26015G19KT 9999 BKN028 OVC033 21/17 A2983 RMK AO2 RAB08E17 SLP104 $

EXPIRED METARs :
  • 261117Z AUTO 25013G20KT 9999 BKN028 OVC034 21/17 A2983 RMK AO2 RAB08E17 SLPNO $
  • 261108Z AUTO 26016G20KT 9999 -RA BKN026 BKN032 21/17 A2984 RMK AO2 RAB08 SLP108 $
  • 261056Z AUTO 23014G20KT 9999 OVC025 21/18 A2984 RMK AO2 OVC V BKN SLP108 T02070175 $
  • 261031Z AUTO 24014G20KT 9999 BKN023 BKN043 BKN080 21/18 A2985 RMK AO2 CIG 023V080 BKN023 V SCT SLPNO $
  • 260956Z AUTO 24012G19KT 9999 FEW021 OVC070 19/17 A2986 RMK AO2 SLP115 T01850173 $
  • 260856Z AUTO 25011KT 9999 BKN060 OVC075 18/17 A2986 RMK AO2 SLP115 T01760169 57010 $

TAF TAF EGUN
Valid from the 26 at 04:00 until the 27 at 10:00 UTC


260400Z 2604/2710 24009KT 9999 BKN040 QNH2991INS
BECMG 2605/2606 24010G20KT 9999 BKN030 QNH2988INS
BECMG 2609/2610 25015G25KT 8000 -SHRA BKN020 QNH2983INS
BECMG 2615/2616 27010G20KT 9999 NSW SCT020 QNH2978INS
BECMG 2619/2620 30012KT 9999 FEW030 QNH2984INS
BECMG 2707/2708 27010G20KT 9999 BKN030 QNH2980INS TX19/2617Z TN10/2701Z
No reported NOTAMs for that airfield.



MET'MAP, your aeronautical weather chart ! - Copyright ORBIFLY December 2007 - Disclaimer

ORBIFLY MET'MAP TEAM :

Programming & Development : Alexandra Zaïnal
Concept & Development : Baudouin d'Aumeries
Co-Development & Prog : Marc-Olivier Méhu
Technical & hardware support : Manuel Goepfert

Contact : metmap@orbifly.com




SOURCES & CREDITS :

   NOAA